sensor_id;sensor_type;location;lat;lon;timestamp;P1;durP1;ratioP1;P2;durP2;ratioP2
18726;SDS011;9492;51.888;5.186;2023-01-28T00:00:04;5.70;;;4.70;;
18726;SDS011;9492;51.888;5.186;2023-01-28T00:02:31;5.77;;;5.27;;
18726;SDS011;9492;51.888;5.186;2023-01-28T00:04:57;5.70;;;5.20;;
18726;SDS011;9492;51.888;5.186;2023-01-28T00:07:23;5.50;;;4.93;;
18726;SDS011;9492;51.888;5.186;2023-01-28T00:09:49;6.00;;;5.40;;
18726;SDS011;9492;51.888;5.186;2023-01-28T00:12:15;5.00;;;4.60;;
18726;SDS011;9492;51.888;5.186;2023-01-28T00:14:41;5.27;;;4.83;;
18726;SDS011;9492;51.888;5.186;2023-01-28T00:17:08;5.80;;;5.10;;
18726;SDS011;9492;51.888;5.186;2023-01-28T00:19:34;5.83;;;5.33;;
18726;SDS011;9492;51.888;5.186;2023-01-28T00:22:00;5.17;;;4.67;;
18726;SDS011;9492;51.888;5.186;2023-01-28T00:24:28;6.70;;;4.90;;
18726;SDS011;9492;51.888;5.186;2023-01-28T00:26:54;5.53;;;5.03;;
18726;SDS011;9492;51.888;5.186;2023-01-28T00:29:20;5.20;;;4.70;;
18726;SDS011;9492;51.888;5.186;2023-01-28T00:31:46;5.63;;;5.07;;
18726;SDS011;9492;51.888;5.186;2023-01-28T00:34:12;6.00;;;5.40;;
18726;SDS011;9492;51.888;5.186;2023-01-28T00:36:38;5.63;;;5.13;;
18726;SDS011;9492;51.888;5.186;2023-01-28T00:39:06;5.47;;;5.03;;
18726;SDS011;9492;51.888;5.186;2023-01-28T00:41:32;5.40;;;4.90;;
18726;SDS011;9492;51.888;5.186;2023-01-28T00:43:58;5.40;;;4.90;;
18726;SDS011;9492;51.888;5.186;2023-01-28T00:46:24;7.20;;;5.63;;
18726;SDS011;9492;51.888;5.186;2023-01-28T00:48:52;5.90;;;5.20;;
18726;SDS011;9492;51.888;5.186;2023-01-28T00:51:18;5.87;;;5.27;;
18726;SDS011;9492;51.888;5.186;2023-01-28T00:53:44;6.17;;;5.57;;
18726;SDS011;9492;51.888;5.186;2023-01-28T00:56:13;5.93;;;5.33;;
18726;SDS011;9492;51.888;5.186;2023-01-28T00:58:39;5.93;;;5.37;;
18726;SDS011;9492;51.888;5.186;2023-01-28T01:01:06;5.47;;;4.97;;
18726;SDS011;9492;51.888;5.186;2023-01-28T01:03:33;5.53;;;5.00;;
18726;SDS011;9492;51.888;5.186;2023-01-28T01:05:59;5.47;;;4.97;;
18726;SDS011;9492;51.888;5.186;2023-01-28T01:08:25;6.00;;;5.40;;
18726;SDS011;9492;51.888;5.186;2023-01-28T01:10:59;6.03;;;5.43;;
18726;SDS011;9492;51.888;5.186;2023-01-28T01:13:25;5.97;;;5.37;;
18726;SDS011;9492;51.888;5.186;2023-01-28T01:15:59;5.27;;;4.77;;
18726;SDS011;9492;51.888;5.186;2023-01-28T01:18:26;5.63;;;5.13;;
18726;SDS011;9492;51.888;5.186;2023-01-28T01:20:52;7.07;;;5.37;;
18726;SDS011;9492;51.888;5.186;2023-01-28T01:23:22;5.83;;;5.27;;
18726;SDS011;9492;51.888;5.186;2023-01-28T01:25:48;6.33;;;5.73;;
18726;SDS011;9492;51.888;5.186;2023-01-28T01:28:15;6.20;;;5.70;;
18726;SDS011;9492;51.888;5.186;2023-01-28T01:30:41;5.80;;;5.20;;
18726;SDS011;9492;51.888;5.186;2023-01-28T01:33:07;7.03;;;5.83;;
18726;SDS011;9492;51.888;5.186;2023-01-28T01:35:33;6.83;;;5.40;;
18726;SDS011;9492;51.888;5.186;2023-01-28T01:37:59;5.60;;;5.10;;
18726;SDS011;9492;51.888;5.186;2023-01-28T01:40:27;5.93;;;5.33;;
18726;SDS011;9492;51.888;5.186;2023-01-28T01:42:53;5.70;;;4.97;;
18726;SDS011;9492;51.888;5.186;2023-01-28T01:45:20;6.03;;;5.43;;
18726;SDS011;9492;51.888;5.186;2023-01-28T01:47:47;5.27;;;4.60;;
18726;SDS011;9492;51.888;5.186;2023-01-28T01:50:23;6.33;;;5.73;;
18726;SDS011;9492;51.888;5.186;2023-01-28T01:52:50;6.47;;;5.30;;
18726;SDS011;9492;51.888;5.186;2023-01-28T01:55:18;5.77;;;5.27;;
18726;SDS011;9492;51.888;5.186;2023-01-28T01:57:46;6.47;;;5.80;;
18726;SDS011;9492;51.888;5.186;2023-01-28T02:00:14;6.20;;;5.60;;
18726;SDS011;9492;51.888;5.186;2023-01-28T02:02:43;7.13;;;6.07;;
18726;SDS011;9492;51.888;5.186;2023-01-28T02:05:11;6.40;;;5.33;;
18726;SDS011;9492;51.888;5.186;2023-01-28T02:07:37;7.07;;;6.27;;
18726;SDS011;9492;51.888;5.186;2023-01-28T02:10:04;6.67;;;5.93;;
18726;SDS011;9492;51.888;5.186;2023-01-28T02:12:34;7.13;;;6.17;;
18726;SDS011;9492;51.888;5.186;2023-01-28T02:15:05;7.80;;;6.67;;
18726;SDS011;9492;51.888;5.186;2023-01-28T02:17:31;6.47;;;5.77;;
18726;SDS011;9492;51.888;5.186;2023-01-28T02:19:59;6.70;;;6.00;;
18726;SDS011;9492;51.888;5.186;2023-01-28T02:30:15;6.37;;;5.77;;
18726;SDS011;9492;51.888;5.186;2023-01-28T02:32:47;6.13;;;5.53;;
18726;SDS011;9492;51.888;5.186;2023-01-28T02:35:15;6.03;;;5.43;;
18726;SDS011;9492;51.888;5.186;2023-01-28T02:37:45;7.40;;;6.37;;
18726;SDS011;9492;51.888;5.186;2023-01-28T02:40:13;18.93;;;6.07;;
18726;SDS011;9492;51.888;5.186;2023-01-28T02:42:39;6.50;;;5.73;;
18726;SDS011;9492;51.888;5.186;2023-01-28T02:45:14;6.53;;;5.90;;
18726;SDS011;9492;51.888;5.186;2023-01-28T02:47:43;7.17;;;5.70;;
18726;SDS011;9492;51.888;5.186;2023-01-28T02:50:21;6.33;;;5.53;;
18726;SDS011;9492;51.888;5.186;2023-01-28T02:53:09;7.20;;;6.20;;
18726;SDS011;9492;51.888;5.186;2023-01-28T02:56:01;6.50;;;5.80;;
18726;SDS011;9492;51.888;5.186;2023-01-28T02:58:44;6.00;;;5.40;;
18726;SDS011;9492;51.888;5.186;2023-01-28T03:01:18;5.73;;;5.23;;
18726;SDS011;9492;51.888;5.186;2023-01-28T03:03:58;5.80;;;5.20;;
18726;SDS011;9492;51.888;5.186;2023-01-28T03:06:27;6.37;;;5.70;;
18726;SDS011;9492;51.888;5.186;2023-01-28T03:08:57;6.57;;;5.93;;
18726;SDS011;9492;51.888;5.186;2023-01-28T03:11:56;6.63;;;6.00;;
18726;SDS011;9492;51.888;5.186;2023-01-28T03:14:42;6.93;;;5.87;;
18726;SDS011;9492;51.888;5.186;2023-01-28T03:17:31;6.70;;;5.93;;
18726;SDS011;9492;51.888;5.186;2023-01-28T03:20:17;6.77;;;6.00;;
18726;SDS011;9492;51.888;5.186;2023-01-28T03:23:06;7.23;;;6.53;;
18726;SDS011;9492;51.888;5.186;2023-01-28T03:25:52;6.17;;;5.57;;
18726;SDS011;9492;51.888;5.186;2023-01-28T03:28:41;7.00;;;6.07;;
18726;SDS011;9492;51.888;5.186;2023-01-28T03:31:26;6.87;;;6.10;;
18726;SDS011;9492;51.888;5.186;2023-01-28T03:34:11;6.00;;;5.40;;
18726;SDS011;9492;51.888;5.186;2023-01-28T03:36:56;6.50;;;5.87;;
18726;SDS011;9492;51.888;5.186;2023-01-28T03:39:26;7.33;;;6.17;;
18726;SDS011;9492;51.888;5.186;2023-01-28T03:44:22;7.40;;;6.10;;
18726;SDS011;9492;51.888;5.186;2023-01-28T03:47:07;7.13;;;5.70;;
18726;SDS011;9492;51.888;5.186;2023-01-28T03:49:35;6.50;;;5.87;;
18726;SDS011;9492;51.888;5.186;2023-01-28T03:52:01;7.33;;;6.43;;
18726;SDS011;9492;51.888;5.186;2023-01-28T03:54:27;6.73;;;6.03;;
18726;SDS011;9492;51.888;5.186;2023-01-28T03:56:53;6.63;;;5.93;;
18726;SDS011;9492;51.888;5.186;2023-01-28T03:59:19;7.70;;;6.10;;
18726;SDS011;9492;51.888;5.186;2023-01-28T04:01:45;7.23;;;6.20;;
18726;SDS011;9492;51.888;5.186;2023-01-28T04:04:11;7.40;;;6.37;;
18726;SDS011;9492;51.888;5.186;2023-01-28T04:06:47;8.10;;;6.40;;
18726;SDS011;9492;51.888;5.186;2023-01-28T04:09:12;8.40;;;6.53;;
18726;SDS011;9492;51.888;5.186;2023-01-28T04:11:38;8.83;;;6.97;;
18726;SDS011;9492;51.888;5.186;2023-01-28T04:14:04;8.23;;;7.43;;
18726;SDS011;9492;51.888;5.186;2023-01-28T04:16:30;7.17;;;6.17;;
18726;SDS011;9492;51.888;5.186;2023-01-28T04:18:56;8.20;;;6.70;;
18726;SDS011;9492;51.888;5.186;2023-01-28T04:21:23;6.57;;;5.90;;
18726;SDS011;9492;51.888;5.186;2023-01-28T04:23:49;7.63;;;6.47;;
18726;SDS011;9492;51.888;5.186;2023-01-28T04:26:15;7.37;;;6.43;;
18726;SDS011;9492;51.888;5.186;2023-01-28T04:28:41;7.23;;;6.13;;
18726;SDS011;9492;51.888;5.186;2023-01-28T04:31:07;7.33;;;6.50;;
18726;SDS011;9492;51.888;5.186;2023-01-28T04:33:33;8.27;;;6.40;;
18726;SDS011;9492;51.888;5.186;2023-01-28T04:35:59;7.23;;;6.00;;
18726;SDS011;9492;51.888;5.186;2023-01-28T04:38:25;6.83;;;6.13;;
18726;SDS011;9492;51.888;5.186;2023-01-28T04:40:51;9.57;;;7.17;;
18726;SDS011;9492;51.888;5.186;2023-01-28T04:43:17;6.90;;;6.20;;
18726;SDS011;9492;51.888;5.186;2023-01-28T04:45:44;8.77;;;6.40;;
18726;SDS011;9492;51.888;5.186;2023-01-28T04:48:10;7.80;;;6.53;;
18726;SDS011;9492;51.888;5.186;2023-01-28T04:50:36;7.60;;;6.17;;
18726;SDS011;9492;51.888;5.186;2023-01-28T04:53:02;7.10;;;6.20;;
18726;SDS011;9492;51.888;5.186;2023-01-28T04:55:28;7.00;;;6.00;;
18726;SDS011;9492;51.888;5.186;2023-01-28T04:57:54;8.33;;;6.83;;
18726;SDS011;9492;51.888;5.186;2023-01-28T05:00:20;7.53;;;6.13;;
18726;SDS011;9492;51.888;5.186;2023-01-28T05:02:46;6.83;;;5.90;;
18726;SDS011;9492;51.888;5.186;2023-01-28T05:05:12;7.53;;;6.47;;
18726;SDS011;9492;51.888;5.186;2023-01-28T05:07:38;8.37;;;6.67;;
18726;SDS011;9492;51.888;5.186;2023-01-28T05:10:04;7.53;;;6.47;;
18726;SDS011;9492;51.888;5.186;2023-01-28T05:12:31;7.60;;;6.17;;
18726;SDS011;9492;51.888;5.186;2023-01-28T05:14:58;8.27;;;6.57;;
18726;SDS011;9492;51.888;5.186;2023-01-28T05:17:27;9.23;;;6.60;;
18726;SDS011;9492;51.888;5.186;2023-01-28T05:19:53;8.67;;;6.67;;
18726;SDS011;9492;51.888;5.186;2023-01-28T05:22:19;7.73;;;6.33;;
18726;SDS011;9492;51.888;5.186;2023-01-28T05:24:45;7.97;;;6.10;;
18726;SDS011;9492;51.888;5.186;2023-01-28T05:27:11;7.87;;;6.23;;
18726;SDS011;9492;51.888;5.186;2023-01-28T05:29:37;7.53;;;6.40;;
18726;SDS011;9492;51.888;5.186;2023-01-28T05:32:03;6.87;;;6.10;;
18726;SDS011;9492;51.888;5.186;2023-01-28T05:34:29;7.90;;;6.87;;
18726;SDS011;9492;51.888;5.186;2023-01-28T05:36:55;7.30;;;6.37;;
18726;SDS011;9492;51.888;5.186;2023-01-28T05:39:21;8.03;;;6.57;;
18726;SDS011;9492;51.888;5.186;2023-01-28T05:41:47;6.90;;;6.07;;
18726;SDS011;9492;51.888;5.186;2023-01-28T05:44:13;8.10;;;6.67;;
18726;SDS011;9492;51.888;5.186;2023-01-28T05:46:39;7.53;;;6.30;;
18726;SDS011;9492;51.888;5.186;2023-01-28T05:49:09;8.53;;;6.43;;
18726;SDS011;9492;51.888;5.186;2023-01-28T05:51:37;9.17;;;7.57;;
18726;SDS011;9492;51.888;5.186;2023-01-28T05:54:06;8.10;;;6.53;;
18726;SDS011;9492;51.888;5.186;2023-01-28T05:56:32;7.20;;;6.50;;
18726;SDS011;9492;51.888;5.186;2023-01-28T05:59:00;8.43;;;6.30;;
18726;SDS011;9492;51.888;5.186;2023-01-28T06:01:26;8.07;;;6.67;;
18726;SDS011;9492;51.888;5.186;2023-01-28T06:03:52;7.90;;;6.70;;
18726;SDS011;9492;51.888;5.186;2023-01-28T06:06:18;7.53;;;6.73;;
18726;SDS011;9492;51.888;5.186;2023-01-28T06:08:44;8.03;;;6.30;;
18726;SDS011;9492;51.888;5.186;2023-01-28T06:11:10;7.27;;;5.73;;
18726;SDS011;9492;51.888;5.186;2023-01-28T06:13:36;7.80;;;6.47;;
18726;SDS011;9492;51.888;5.186;2023-01-28T06:16:02;7.07;;;6.07;;
18726;SDS011;9492;51.888;5.186;2023-01-28T06:18:28;7.30;;;6.30;;
18726;SDS011;9492;51.888;5.186;2023-01-28T06:20:54;7.40;;;6.33;;
18726;SDS011;9492;51.888;5.186;2023-01-28T06:23:20;9.30;;;7.03;;
18726;SDS011;9492;51.888;5.186;2023-01-28T06:25:46;9.73;;;7.40;;
18726;SDS011;9492;51.888;5.186;2023-01-28T06:28:12;8.03;;;6.67;;
18726;SDS011;9492;51.888;5.186;2023-01-28T06:30:38;7.53;;;6.50;;
18726;SDS011;9492;51.888;5.186;2023-01-28T06:33:04;8.13;;;6.43;;
18726;SDS011;9492;51.888;5.186;2023-01-28T06:35:31;8.50;;;6.70;;
18726;SDS011;9492;51.888;5.186;2023-01-28T06:37:57;8.13;;;6.53;;
18726;SDS011;9492;51.888;5.186;2023-01-28T06:40:23;7.13;;;6.40;;
18726;SDS011;9492;51.888;5.186;2023-01-28T06:42:50;6.90;;;6.20;;
18726;SDS011;9492;51.888;5.186;2023-01-28T06:45:16;7.90;;;6.73;;
18726;SDS011;9492;51.888;5.186;2023-01-28T06:47:41;6.97;;;5.73;;
18726;SDS011;9492;51.888;5.186;2023-01-28T06:50:08;7.53;;;6.27;;
18726;SDS011;9492;51.888;5.186;2023-01-28T06:52:34;7.43;;;6.40;;
18726;SDS011;9492;51.888;5.186;2023-01-28T06:55:00;7.20;;;5.70;;
18726;SDS011;9492;51.888;5.186;2023-01-28T06:57:26;7.13;;;6.20;;
18726;SDS011;9492;51.888;5.186;2023-01-28T06:59:52;7.80;;;6.40;;
18726;SDS011;9492;51.888;5.186;2023-01-28T07:02:18;8.37;;;6.57;;
18726;SDS011;9492;51.888;5.186;2023-01-28T07:04:44;7.10;;;6.40;;
18726;SDS011;9492;51.888;5.186;2023-01-28T07:07:10;7.00;;;6.20;;
18726;SDS011;9492;51.888;5.186;2023-01-28T07:09:36;8.10;;;6.53;;
18726;SDS011;9492;51.888;5.186;2023-01-28T07:12:02;7.70;;;6.40;;
18726;SDS011;9492;51.888;5.186;2023-01-28T07:14:29;8.03;;;6.90;;
18726;SDS011;9492;51.888;5.186;2023-01-28T07:16:55;9.03;;;6.87;;
18726;SDS011;9492;51.888;5.186;2023-01-28T07:19:21;8.90;;;6.87;;
18726;SDS011;9492;51.888;5.186;2023-01-28T07:21:47;7.93;;;6.40;;
18726;SDS011;9492;51.888;5.186;2023-01-28T07:24:13;8.23;;;7.10;;
18726;SDS011;9492;51.888;5.186;2023-01-28T07:26:39;8.47;;;6.50;;
18726;SDS011;9492;51.888;5.186;2023-01-28T07:29:05;7.97;;;6.50;;
18726;SDS011;9492;51.888;5.186;2023-01-28T07:31:31;7.20;;;6.33;;
18726;SDS011;9492;51.888;5.186;2023-01-28T07:33:57;7.27;;;6.00;;
18726;SDS011;9492;51.888;5.186;2023-01-28T07:36:23;8.33;;;6.80;;
18726;SDS011;9492;51.888;5.186;2023-01-28T07:38:49;7.67;;;6.67;;
18726;SDS011;9492;51.888;5.186;2023-01-28T07:41:15;7.77;;;6.17;;
18726;SDS011;9492;51.888;5.186;2023-01-28T07:43:41;8.00;;;6.30;;
18726;SDS011;9492;51.888;5.186;2023-01-28T07:46:07;6.40;;;5.50;;
18726;SDS011;9492;51.888;5.186;2023-01-28T07:48:33;6.83;;;5.90;;
18726;SDS011;9492;51.888;5.186;2023-01-28T07:51:00;6.53;;;5.73;;
18726;SDS011;9492;51.888;5.186;2023-01-28T07:53:26;7.13;;;6.43;;
18726;SDS011;9492;51.888;5.186;2023-01-28T07:55:57;7.00;;;6.30;;
18726;SDS011;9492;51.888;5.186;2023-01-28T07:58:23;6.80;;;6.10;;
18726;SDS011;9492;51.888;5.186;2023-01-28T08:00:49;6.90;;;6.20;;
18726;SDS011;9492;51.888;5.186;2023-01-28T08:03:15;7.73;;;6.40;;
18726;SDS011;9492;51.888;5.186;2023-01-28T08:05:42;8.63;;;6.27;;
18726;SDS011;9492;51.888;5.186;2023-01-28T08:08:09;7.50;;;6.67;;
18726;SDS011;9492;51.888;5.186;2023-01-28T08:10:35;7.20;;;6.50;;
18726;SDS011;9492;51.888;5.186;2023-01-28T08:13:02;7.73;;;6.93;;
18726;SDS011;9492;51.888;5.186;2023-01-28T08:15:28;7.83;;;7.03;;
18726;SDS011;9492;51.888;5.186;2023-01-28T08:17:54;8.33;;;6.90;;
18726;SDS011;9492;51.888;5.186;2023-01-28T08:20:21;9.67;;;6.97;;
18726;SDS011;9492;51.888;5.186;2023-01-28T08:22:47;7.90;;;7.10;;
18726;SDS011;9492;51.888;5.186;2023-01-28T08:25:13;8.87;;;7.30;;
18726;SDS011;9492;51.888;5.186;2023-01-28T08:27:39;8.87;;;7.17;;
18726;SDS011;9492;51.888;5.186;2023-01-28T08:30:05;8.10;;;7.00;;
18726;SDS011;9492;51.888;5.186;2023-01-28T08:32:33;7.97;;;6.90;;
18726;SDS011;9492;51.888;5.186;2023-01-28T08:34:59;8.47;;;7.57;;
18726;SDS011;9492;51.888;5.186;2023-01-28T08:37:24;8.43;;;6.80;;
18726;SDS011;9492;51.888;5.186;2023-01-28T08:39:50;9.23;;;7.43;;
18726;SDS011;9492;51.888;5.186;2023-01-28T08:42:17;7.83;;;6.70;;
18726;SDS011;9492;51.888;5.186;2023-01-28T08:44:43;7.63;;;6.83;;
18726;SDS011;9492;51.888;5.186;2023-01-28T08:47:09;8.73;;;7.57;;
18726;SDS011;9492;51.888;5.186;2023-01-28T08:49:35;8.10;;;6.97;;
18726;SDS011;9492;51.888;5.186;2023-01-28T08:52:01;7.90;;;7.10;;
18726;SDS011;9492;51.888;5.186;2023-01-28T08:54:27;8.57;;;7.40;;
18726;SDS011;9492;51.888;5.186;2023-01-28T08:56:53;8.13;;;6.87;;
18726;SDS011;9492;51.888;5.186;2023-01-28T08:59:19;8.03;;;6.40;;
18726;SDS011;9492;51.888;5.186;2023-01-28T09:01:45;8.97;;;7.47;;
18726;SDS011;9492;51.888;5.186;2023-01-28T09:04:11;9.00;;;8.10;;
18726;SDS011;9492;51.888;5.186;2023-01-28T09:06:37;9.87;;;8.33;;
18726;SDS011;9492;51.888;5.186;2023-01-28T09:09:03;9.73;;;8.00;;
18726;SDS011;9492;51.888;5.186;2023-01-28T09:11:29;9.57;;;7.97;;
18726;SDS011;9492;51.888;5.186;2023-01-28T09:13:58;7.77;;;6.97;;
18726;SDS011;9492;51.888;5.186;2023-01-28T09:16:24;8.47;;;7.43;;
18726;SDS011;9492;51.888;5.186;2023-01-28T09:18:50;10.47;;;8.33;;
18726;SDS011;9492;51.888;5.186;2023-01-28T09:21:18;9.33;;;7.60;;
18726;SDS011;9492;51.888;5.186;2023-01-28T09:23:43;9.13;;;8.17;;
18726;SDS011;9492;51.888;5.186;2023-01-28T09:26:09;8.27;;;7.30;;
18726;SDS011;9492;51.888;5.186;2023-01-28T09:28:35;9.57;;;7.93;;
18726;SDS011;9492;51.888;5.186;2023-01-28T09:31:06;8.97;;;7.23;;
18726;SDS011;9492;51.888;5.186;2023-01-28T09:33:33;9.17;;;7.20;;
18726;SDS011;9492;51.888;5.186;2023-01-28T09:35:59;9.27;;;7.50;;
18726;SDS011;9492;51.888;5.186;2023-01-28T09:38:26;10.13;;;6.70;;
18726;SDS011;9492;51.888;5.186;2023-01-28T09:40:52;8.03;;;6.63;;
18726;SDS011;9492;51.888;5.186;2023-01-28T09:46:02;8.07;;;6.77;;
18726;SDS011;9492;51.888;5.186;2023-01-28T09:48:30;10.57;;;8.67;;
18726;SDS011;9492;51.888;5.186;2023-01-28T09:50:58;7.30;;;6.53;;
18726;SDS011;9492;51.888;5.186;2023-01-28T09:53:29;9.87;;;6.70;;
18726;SDS011;9492;51.888;5.186;2023-01-28T09:58:25;9.20;;;7.23;;
18726;SDS011;9492;51.888;5.186;2023-01-28T10:08:39;5.97;;;5.37;;
18726;SDS011;9492;51.888;5.186;2023-01-28T10:16:45;6.00;;;5.27;;
18726;SDS011;9492;51.888;5.186;2023-01-28T10:19:13;5.67;;;4.97;;
18726;SDS011;9492;51.888;5.186;2023-01-28T10:24:09;7.23;;;5.83;;
18726;SDS011;9492;51.888;5.186;2023-01-28T10:26:37;5.80;;;5.07;;
18726;SDS011;9492;51.888;5.186;2023-01-28T10:29:11;7.73;;;6.20;;
18726;SDS011;9492;51.888;5.186;2023-01-28T10:31:39;6.00;;;5.40;;
18726;SDS011;9492;51.888;5.186;2023-01-28T10:34:08;8.17;;;5.50;;
18726;SDS011;9492;51.888;5.186;2023-01-28T10:36:34;5.73;;;5.07;;
18726;SDS011;9492;51.888;5.186;2023-01-28T10:39:00;6.03;;;5.27;;
18726;SDS011;9492;51.888;5.186;2023-01-28T10:41:26;7.13;;;5.77;;
18726;SDS011;9492;51.888;5.186;2023-01-28T10:43:52;7.83;;;6.67;;
18726;SDS011;9492;51.888;5.186;2023-01-28T10:46:22;5.93;;;5.33;;
18726;SDS011;9492;51.888;5.186;2023-01-28T10:49:11;5.70;;;5.13;;
18726;SDS011;9492;51.888;5.186;2023-01-28T10:51:39;5.67;;;4.87;;
18726;SDS011;9492;51.888;5.186;2023-01-28T10:54:27;5.83;;;5.23;;
18726;SDS011;9492;51.888;5.186;2023-01-28T10:56:54;4.63;;;4.20;;
18726;SDS011;9492;51.888;5.186;2023-01-28T10:59:22;7.03;;;5.23;;
18726;SDS011;9492;51.888;5.186;2023-01-28T11:01:57;5.23;;;4.57;;
18726;SDS011;9492;51.888;5.186;2023-01-28T11:04:28;5.03;;;4.53;;
18726;SDS011;9492;51.888;5.186;2023-01-28T11:07:36;6.10;;;4.37;;
18726;SDS011;9492;51.888;5.186;2023-01-28T11:09:44;7.57;;;6.50;;
18726;SDS011;9492;51.888;5.186;2023-01-28T11:12:11;4.80;;;4.30;;
18726;SDS011;9492;51.888;5.186;2023-01-28T11:14:37;5.20;;;4.40;;
18726;SDS011;9492;51.888;5.186;2023-01-28T11:17:11;4.47;;;4.07;;
18726;SDS011;9492;51.888;5.186;2023-01-28T11:19:40;5.57;;;4.50;;
18726;SDS011;9492;51.888;5.186;2023-01-28T11:22:13;7.70;;;4.83;;
18726;SDS011;9492;51.888;5.186;2023-01-28T11:24:44;5.13;;;4.07;;
18726;SDS011;9492;51.888;5.186;2023-01-28T11:27:14;5.17;;;4.67;;
18726;SDS011;9492;51.888;5.186;2023-01-28T11:29:41;4.80;;;4.03;;
18726;SDS011;9492;51.888;5.186;2023-01-28T11:32:19;5.53;;;4.47;;
18726;SDS011;9492;51.888;5.186;2023-01-28T11:34:50;5.57;;;4.03;;
18726;SDS011;9492;51.888;5.186;2023-01-28T11:37:16;3.70;;;3.30;;
18726;SDS011;9492;51.888;5.186;2023-01-28T11:39:45;5.27;;;4.13;;
18726;SDS011;9492;51.888;5.186;2023-01-28T11:42:18;6.60;;;3.87;;
18726;SDS011;9492;51.888;5.186;2023-01-28T11:44:45;6.40;;;4.60;;
18726;SDS011;9492;51.888;5.186;2023-01-28T11:55:26;5.53;;;3.70;;
18726;SDS011;9492;51.888;5.186;2023-01-28T12:00:39;5.23;;;3.90;;
18726;SDS011;9492;51.888;5.186;2023-01-28T12:03:15;3.97;;;3.23;;
18726;SDS011;9492;51.888;5.186;2023-01-28T12:05:50;5.57;;;4.30;;
18726;SDS011;9492;51.888;5.186;2023-01-28T12:13:13;6.03;;;3.87;;
18726;SDS011;9492;51.888;5.186;2023-01-28T12:48:46;5.23;;;4.23;;
18726;SDS011;9492;51.888;5.186;2023-01-28T12:51:15;4.60;;;4.07;;
18726;SDS011;9492;51.888;5.186;2023-01-28T12:56:22;8.53;;;5.27;;
18726;SDS011;9492;51.888;5.186;2023-01-28T12:59:09;4.67;;;3.90;;
18726;SDS011;9492;51.888;5.186;2023-01-28T13:01:39;4.20;;;3.57;;
18726;SDS011;9492;51.888;5.186;2023-01-28T13:04:08;11.37;;;8.23;;
18726;SDS011;9492;51.888;5.186;2023-01-28T13:06:39;6.03;;;3.97;;
18726;SDS011;9492;51.888;5.186;2023-01-28T13:09:12;6.00;;;4.70;;
18726;SDS011;9492;51.888;5.186;2023-01-28T13:11:38;6.77;;;5.47;;
18726;SDS011;9492;51.888;5.186;2023-01-28T13:14:05;5.30;;;4.33;;
18726;SDS011;9492;51.888;5.186;2023-01-28T13:16:32;6.03;;;4.40;;
18726;SDS011;9492;51.888;5.186;2023-01-28T13:19:05;4.20;;;3.80;;
18726;SDS011;9492;51.888;5.186;2023-01-28T13:21:33;6.63;;;4.40;;
18726;SDS011;9492;51.888;5.186;2023-01-28T13:31:40;4.77;;;4.00;;
18726;SDS011;9492;51.888;5.186;2023-01-28T13:34:07;4.97;;;4.17;;
18726;SDS011;9492;51.888;5.186;2023-01-28T13:36:44;5.37;;;3.97;;
18726;SDS011;9492;51.888;5.186;2023-01-28T13:39:18;6.33;;;5.03;;
18726;SDS011;9492;51.888;5.186;2023-01-28T13:41:46;5.03;;;4.53;;
18726;SDS011;9492;51.888;5.186;2023-01-28T13:46:55;5.70;;;4.03;;
18726;SDS011;9492;51.888;5.186;2023-01-28T13:49:24;5.33;;;3.63;;
18726;SDS011;9492;51.888;5.186;2023-01-28T13:52:03;5.73;;;4.30;;
18726;SDS011;9492;51.888;5.186;2023-01-28T13:54:32;5.87;;;4.57;;
18726;SDS011;9492;51.888;5.186;2023-01-28T14:07:11;4.67;;;3.87;;
18726;SDS011;9492;51.888;5.186;2023-01-28T14:17:54;5.93;;;4.10;;
18726;SDS011;9492;51.888;5.186;2023-01-28T14:20:32;5.77;;;4.37;;
18726;SDS011;9492;51.888;5.186;2023-01-28T14:23:04;7.27;;;4.20;;
18726;SDS011;9492;51.888;5.186;2023-01-28T14:27:56;5.43;;;4.07;;
18726;SDS011;9492;51.888;5.186;2023-01-28T14:30:35;16.67;;;10.47;;
18726;SDS011;9492;51.888;5.186;2023-01-28T14:33:11;9.10;;;6.07;;
18726;SDS011;9492;51.888;5.186;2023-01-28T14:35:37;36.40;;;18.43;;
18726;SDS011;9492;51.888;5.186;2023-01-28T14:38:06;19.10;;;10.90;;
18726;SDS011;9492;51.888;5.186;2023-01-28T14:40:32;5.03;;;4.20;;
18726;SDS011;9492;51.888;5.186;2023-01-28T14:43:01;5.80;;;3.93;;
18726;SDS011;9492;51.888;5.186;2023-01-28T14:48:23;4.77;;;3.77;;
18726;SDS011;9492;51.888;5.186;2023-01-28T14:51:00;4.27;;;3.53;;
18726;SDS011;9492;51.888;5.186;2023-01-28T14:56:21;4.90;;;4.10;;
18726;SDS011;9492;51.888;5.186;2023-01-28T14:58:53;4.90;;;3.83;;
18726;SDS011;9492;51.888;5.186;2023-01-28T15:01:25;5.30;;;3.80;;
18726;SDS011;9492;51.888;5.186;2023-01-28T15:03:52;4.23;;;3.70;;
18726;SDS011;9492;51.888;5.186;2023-01-28T15:06:19;4.73;;;3.63;;
18726;SDS011;9492;51.888;5.186;2023-01-28T15:08:46;5.63;;;3.87;;
18726;SDS011;9492;51.888;5.186;2023-01-28T15:11:12;6.17;;;4.30;;
18726;SDS011;9492;51.888;5.186;2023-01-28T15:13:41;8.43;;;4.43;;
18726;SDS011;9492;51.888;5.186;2023-01-28T15:16:14;6.40;;;4.67;;
18726;SDS011;9492;51.888;5.186;2023-01-28T15:18:41;7.37;;;4.50;;
18726;SDS011;9492;51.888;5.186;2023-01-28T15:21:08;4.70;;;3.93;;
18726;SDS011;9492;51.888;5.186;2023-01-28T15:23:38;5.40;;;4.20;;
18726;SDS011;9492;51.888;5.186;2023-01-28T15:26:09;5.57;;;4.47;;
18726;SDS011;9492;51.888;5.186;2023-01-28T15:28:37;5.47;;;4.33;;
18726;SDS011;9492;51.888;5.186;2023-01-28T15:31:04;5.07;;;3.87;;
18726;SDS011;9492;51.888;5.186;2023-01-28T15:33:30;6.47;;;4.50;;
18726;SDS011;9492;51.888;5.186;2023-01-28T15:35:57;6.33;;;4.53;;
18726;SDS011;9492;51.888;5.186;2023-01-28T15:38:25;5.70;;;4.63;;
18726;SDS011;9492;51.888;5.186;2023-01-28T15:40:58;7.27;;;4.27;;
18726;SDS011;9492;51.888;5.186;2023-01-28T15:43:25;6.00;;;4.50;;
18726;SDS011;9492;51.888;5.186;2023-01-28T15:45:53;7.00;;;4.47;;
18726;SDS011;9492;51.888;5.186;2023-01-28T15:48:20;6.17;;;5.20;;
18726;SDS011;9492;51.888;5.186;2023-01-28T15:50:46;5.53;;;4.60;;
18726;SDS011;9492;51.888;5.186;2023-01-28T15:53:13;6.70;;;4.87;;
18726;SDS011;9492;51.888;5.186;2023-01-28T15:55:40;8.23;;;4.60;;
18726;SDS011;9492;51.888;5.186;2023-01-28T16:01:00;7.70;;;4.70;;
18726;SDS011;9492;51.888;5.186;2023-01-28T16:03:27;8.33;;;5.40;;
18726;SDS011;9492;51.888;5.186;2023-01-28T16:05:54;8.60;;;5.87;;
18726;SDS011;9492;51.888;5.186;2023-01-28T16:08:25;5.47;;;4.47;;
18726;SDS011;9492;51.888;5.186;2023-01-28T16:10:53;6.37;;;5.20;;
18726;SDS011;9492;51.888;5.186;2023-01-28T16:13:20;6.77;;;4.83;;
18726;SDS011;9492;51.888;5.186;2023-01-28T16:15:48;7.30;;;4.53;;
18726;SDS011;9492;51.888;5.186;2023-01-28T16:18:28;8.43;;;4.87;;
18726;SDS011;9492;51.888;5.186;2023-01-28T16:20:54;5.33;;;4.43;;
18726;SDS011;9492;51.888;5.186;2023-01-28T16:23:21;6.67;;;4.90;;
18726;SDS011;9492;51.888;5.186;2023-01-28T16:25:57;6.67;;;5.03;;
18726;SDS011;9492;51.888;5.186;2023-01-28T16:28:23;6.37;;;5.10;;
18726;SDS011;9492;51.888;5.186;2023-01-28T16:30:50;9.00;;;5.20;;
18726;SDS011;9492;51.888;5.186;2023-01-28T16:33:18;7.23;;;5.00;;
18726;SDS011;9492;51.888;5.186;2023-01-28T16:35:44;7.03;;;4.93;;
18726;SDS011;9492;51.888;5.186;2023-01-28T16:38:10;7.30;;;5.50;;
18726;SDS011;9492;51.888;5.186;2023-01-28T16:40:41;9.37;;;5.80;;
18726;SDS011;9492;51.888;5.186;2023-01-28T16:43:09;7.00;;;5.03;;
18726;SDS011;9492;51.888;5.186;2023-01-28T16:45:36;7.90;;;5.50;;
18726;SDS011;9492;51.888;5.186;2023-01-28T16:48:02;7.93;;;6.07;;
18726;SDS011;9492;51.888;5.186;2023-01-28T16:50:28;9.13;;;5.17;;
18726;SDS011;9492;51.888;5.186;2023-01-28T16:52:54;7.00;;;5.17;;
18726;SDS011;9492;51.888;5.186;2023-01-28T16:55:21;10.10;;;6.13;;
18726;SDS011;9492;51.888;5.186;2023-01-28T16:57:49;11.57;;;5.97;;
18726;SDS011;9492;51.888;5.186;2023-01-28T17:00:17;8.53;;;6.87;;
18726;SDS011;9492;51.888;5.186;2023-01-28T17:02:44;7.70;;;5.90;;
18726;SDS011;9492;51.888;5.186;2023-01-28T17:05:10;9.83;;;7.23;;
18726;SDS011;9492;51.888;5.186;2023-01-28T17:07:37;7.97;;;6.33;;
18726;SDS011;9492;51.888;5.186;2023-01-28T17:10:03;10.03;;;7.53;;